sensor_id;sensor_type;location;lat;lon;timestamp;temperature;humidity
32187;DHT22;18686;53.084;8.872;2023-02-24T00:00:26;5.30;99.90
32187;DHT22;18686;53.084;8.872;2023-02-24T00:03:04;5.30;99.90
32187;DHT22;18686;53.084;8.872;2023-02-24T00:05:37;5.30;99.90
32187;DHT22;18686;53.084;8.872;2023-02-24T00:08:11;5.40;99.90
32187;DHT22;18686;53.084;8.872;2023-02-24T00:10:39;5.40;99.90
32187;DHT22;18686;53.084;8.872;2023-02-24T00:13:09;5.40;99.90
32187;DHT22;18686;53.084;8.872;2023-02-24T00:15:39;5.40;99.90
32187;DHT22;18686;53.084;8.872;2023-02-24T00:18:07;5.30;99.90
32187;DHT22;18686;53.084;8.872;2023-02-24T00:20:36;5.30;99.90
32187;DHT22;18686;53.084;8.872;2023-02-24T00:23:04;5.20;99.90
32187;DHT22;18686;53.084;8.872;2023-02-24T00:25:37;5.30;99.90
32187;DHT22;18686;53.084;8.872;2023-02-24T00:28:05;5.30;99.90
32187;DHT22;18686;53.084;8.872;2023-02-24T00:30:34;5.30;99.90
32187;DHT22;18686;53.084;8.872;2023-02-24T00:33:02;5.30;99.90
32187;DHT22;18686;53.084;8.872;2023-02-24T00:35:32;5.30;99.90
32187;DHT22;18686;53.084;8.872;2023-02-24T00:38:01;5.30;99.90
32187;DHT22;18686;53.084;8.872;2023-02-24T00:40:29;5.30;99.90
32187;DHT22;18686;53.084;8.872;2023-02-24T00:43:00;5.40;99.90
32187;DHT22;18686;53.084;8.872;2023-02-24T00:45:28;5.40;99.90
32187;DHT22;18686;53.084;8.872;2023-02-24T00:48:00;5.40;99.90
32187;DHT22;18686;53.084;8.872;2023-02-24T00:50:30;5.40;99.90
32187;DHT22;18686;53.084;8.872;2023-02-24T00:52:59;5.40;99.90
32187;DHT22;18686;53.084;8.872;2023-02-24T00:55:27;5.40;99.90
32187;DHT22;18686;53.084;8.872;2023-02-24T00:58:04;5.40;99.90
32187;DHT22;18686;53.084;8.872;2023-02-24T01:00:33;5.40;99.90
32187;DHT22;18686;53.084;8.872;2023-02-24T01:03:04;5.40;99.90
32187;DHT22;18686;53.084;8.872;2023-02-24T01:05:35;5.40;99.90
32187;DHT22;18686;53.084;8.872;2023-02-24T01:08:03;5.40;99.90
32187;DHT22;18686;53.084;8.872;2023-02-24T01:10:32;5.40;99.90
32187;DHT22;18686;53.084;8.872;2023-02-24T01:13:01;5.40;99.90
32187;DHT22;18686;53.084;8.872;2023-02-24T01:15:30;5.50;99.90
32187;DHT22;18686;53.084;8.872;2023-02-24T01:17:58;5.50;99.90
32187;DHT22;18686;53.084;8.872;2023-02-24T01:20:26;5.50;99.90
32187;DHT22;18686;53.084;8.872;2023-02-24T01:22:56;5.50;99.90
32187;DHT22;18686;53.084;8.872;2023-02-24T01:25:24;5.50;99.90
32187;DHT22;18686;53.084;8.872;2023-02-24T01:27:57;5.50;99.90
32187;DHT22;18686;53.084;8.872;2023-02-24T01:30:26;5.50;99.90
32187;DHT22;18686;53.084;8.872;2023-02-24T01:32:57;5.50;99.90
32187;DHT22;18686;53.084;8.872;2023-02-24T01:35:27;5.50;99.90
32187;DHT22;18686;53.084;8.872;2023-02-24T01:37:57;5.50;99.90
32187;DHT22;18686;53.084;8.872;2023-02-24T01:40:27;5.40;99.90
32187;DHT22;18686;53.084;8.872;2023-02-24T01:42:55;5.40;99.90
32187;DHT22;18686;53.084;8.872;2023-02-24T01:45:25;5.40;99.90
32187;DHT22;18686;53.084;8.872;2023-02-24T01:47:59;5.40;99.90
32187;DHT22;18686;53.084;8.872;2023-02-24T01:50:33;5.40;99.90
32187;DHT22;18686;53.084;8.872;2023-02-24T01:53:05;5.40;99.90
32187;DHT22;18686;53.084;8.872;2023-02-24T01:55:37;5.40;99.90
32187;DHT22;18686;53.084;8.872;2023-02-24T01:58:16;5.40;99.90
32187;DHT22;18686;53.084;8.872;2023-02-24T02:00:46;5.50;99.90
32187;DHT22;18686;53.084;8.872;2023-02-24T02:03:21;5.50;99.90
32187;DHT22;18686;53.084;8.872;2023-02-24T02:05:52;5.50;99.90
32187;DHT22;18686;53.084;8.872;2023-02-24T02:08:24;5.50;99.90
32187;DHT22;18686;53.084;8.872;2023-02-24T02:10:53;5.40;99.90
32187;DHT22;18686;53.084;8.872;2023-02-24T02:13:26;5.40;99.90
32187;DHT22;18686;53.084;8.872;2023-02-24T02:16:02;5.30;99.90
32187;DHT22;18686;53.084;8.872;2023-02-24T02:18:41;5.20;99.90
32187;DHT22;18686;53.084;8.872;2023-02-24T02:21:38;5.10;99.90
32187;DHT22;18686;53.084;8.872;2023-02-24T02:24:30;5.10;99.90
32187;DHT22;18686;53.084;8.872;2023-02-24T02:30:49;5.10;99.90
32187;DHT22;18686;53.084;8.872;2023-02-24T02:33:52;5.10;99.90
32187;DHT22;18686;53.084;8.872;2023-02-24T02:36:30;5.10;99.90
32187;DHT22;18686;53.084;8.872;2023-02-24T02:39:07;5.10;99.90
32187;DHT22;18686;53.084;8.872;2023-02-24T02:41:48;5.00;99.90
32187;DHT22;18686;53.084;8.872;2023-02-24T02:44:22;5.00;99.90
32187;DHT22;18686;53.084;8.872;2023-02-24T02:46:56;5.00;99.90
32187;DHT22;18686;53.084;8.872;2023-02-24T02:49:28;5.00;99.90
32187;DHT22;18686;53.084;8.872;2023-02-24T02:52:03;5.00;99.90
32187;DHT22;18686;53.084;8.872;2023-02-24T02:54:38;5.00;99.90
32187;DHT22;18686;53.084;8.872;2023-02-24T02:57:17;5.00;99.90
32187;DHT22;18686;53.084;8.872;2023-02-24T02:59:53;5.10;99.90
32187;DHT22;18686;53.084;8.872;2023-02-24T03:02:27;5.10;99.90
32187;DHT22;18686;53.084;8.872;2023-02-24T03:05:02;5.10;99.90
32187;DHT22;18686;53.084;8.872;2023-02-24T03:07:39;5.10;99.90
32187;DHT22;18686;53.084;8.872;2023-02-24T03:10:14;5.10;99.90
32187;DHT22;18686;53.084;8.872;2023-02-24T03:12:49;5.10;99.90
32187;DHT22;18686;53.084;8.872;2023-02-24T03:15:20;5.10;99.90
32187;DHT22;18686;53.084;8.872;2023-02-24T03:17:53;5.10;99.90
32187;DHT22;18686;53.084;8.872;2023-02-24T03:20:28;5.10;99.90
32187;DHT22;18686;53.084;8.872;2023-02-24T03:23:01;5.10;99.90
32187;DHT22;18686;53.084;8.872;2023-02-24T03:25:36;5.10;99.90
32187;DHT22;18686;53.084;8.872;2023-02-24T03:28:12;5.00;99.90
32187;DHT22;18686;53.084;8.872;2023-02-24T03:30:46;5.10;99.90
32187;DHT22;18686;53.084;8.872;2023-02-24T03:33:20;5.10;99.90
32187;DHT22;18686;53.084;8.872;2023-02-24T03:35:51;5.10;99.90
32187;DHT22;18686;53.084;8.872;2023-02-24T03:38:19;5.20;99.90
32187;DHT22;18686;53.084;8.872;2023-02-24T03:40:51;5.20;99.90
32187;DHT22;18686;53.084;8.872;2023-02-24T03:43:26;5.10;99.90
32187;DHT22;18686;53.084;8.872;2023-02-24T03:45:58;5.20;99.90
32187;DHT22;18686;53.084;8.872;2023-02-24T03:48:28;5.20;99.90
32187;DHT22;18686;53.084;8.872;2023-02-24T03:50:59;5.10;99.90
32187;DHT22;18686;53.084;8.872;2023-02-24T03:53:43;5.10;99.90
32187;DHT22;18686;53.084;8.872;2023-02-24T03:56:27;5.10;99.90
32187;DHT22;18686;53.084;8.872;2023-02-24T03:59:08;5.10;99.90
32187;DHT22;18686;53.084;8.872;2023-02-24T04:01:46;5.10;99.90
32187;DHT22;18686;53.084;8.872;2023-02-24T04:04:25;5.10;99.90
32187;DHT22;18686;53.084;8.872;2023-02-24T04:07:11;5.10;99.90
32187;DHT22;18686;53.084;8.872;2023-02-24T04:09:46;5.10;99.90
32187;DHT22;18686;53.084;8.872;2023-02-24T04:12:20;5.10;99.90
32187;DHT22;18686;53.084;8.872;2023-02-24T04:15:02;5.10;99.90
32187;DHT22;18686;53.084;8.872;2023-02-24T04:17:38;5.10;99.90
32187;DHT22;18686;53.084;8.872;2023-02-24T04:20:12;5.10;99.90
32187;DHT22;18686;53.084;8.872;2023-02-24T04:22:52;5.10;99.90
32187;DHT22;18686;53.084;8.872;2023-02-24T04:25:23;5.00;99.90
32187;DHT22;18686;53.084;8.872;2023-02-24T04:27:55;5.00;99.90
32187;DHT22;18686;53.084;8.872;2023-02-24T04:30:29;4.90;99.90
32187;DHT22;18686;53.084;8.872;2023-02-24T04:32:58;4.90;99.90
32187;DHT22;18686;53.084;8.872;2023-02-24T04:35:27;4.90;99.90
32187;DHT22;18686;53.084;8.872;2023-02-24T04:37:57;4.80;99.90
32187;DHT22;18686;53.084;8.872;2023-02-24T04:40:26;4.80;99.90
32187;DHT22;18686;53.084;8.872;2023-02-24T04:42:54;4.90;99.90
32187;DHT22;18686;53.084;8.872;2023-02-24T04:45:24;4.80;99.90
32187;DHT22;18686;53.084;8.872;2023-02-24T04:47:55;4.80;99.90
32187;DHT22;18686;53.084;8.872;2023-02-24T04:50:30;4.80;99.90
32187;DHT22;18686;53.084;8.872;2023-02-24T04:53:02;4.80;99.90
32187;DHT22;18686;53.084;8.872;2023-02-24T04:55:36;4.80;99.90
32187;DHT22;18686;53.084;8.872;2023-02-24T04:58:06;4.80;99.90
32187;DHT22;18686;53.084;8.872;2023-02-24T05:00:37;4.80;99.90
32187;DHT22;18686;53.084;8.872;2023-02-24T05:03:09;4.80;99.90
32187;DHT22;18686;53.084;8.872;2023-02-24T05:05:38;4.70;99.90
32187;DHT22;18686;53.084;8.872;2023-02-24T05:08:10;4.80;99.90
32187;DHT22;18686;53.084;8.872;2023-02-24T05:10:43;4.80;99.90
32187;DHT22;18686;53.084;8.872;2023-02-24T05:13:13;4.80;99.90
32187;DHT22;18686;53.084;8.872;2023-02-24T05:15:43;4.70;99.90
32187;DHT22;18686;53.084;8.872;2023-02-24T05:18:13;4.70;99.90
32187;DHT22;18686;53.084;8.872;2023-02-24T05:20:44;4.80;99.90
32187;DHT22;18686;53.084;8.872;2023-02-24T05:23:34;4.70;99.90
32187;DHT22;18686;53.084;8.872;2023-02-24T05:26:06;4.80;99.90
32187;DHT22;18686;53.084;8.872;2023-02-24T05:28:35;4.70;99.90
32187;DHT22;18686;53.084;8.872;2023-02-24T05:31:05;4.70;99.90
32187;DHT22;18686;53.084;8.872;2023-02-24T05:33:35;4.70;99.90
32187;DHT22;18686;53.084;8.872;2023-02-24T05:36:07;4.60;99.90
32187;DHT22;18686;53.084;8.872;2023-02-24T05:38:37;4.60;99.90
32187;DHT22;18686;53.084;8.872;2023-02-24T05:41:06;4.60;99.90
32187;DHT22;18686;53.084;8.872;2023-02-24T05:43:41;4.60;99.90
32187;DHT22;18686;53.084;8.872;2023-02-24T05:46:14;4.60;99.90
32187;DHT22;18686;53.084;8.872;2023-02-24T05:48:42;4.60;99.90
32187;DHT22;18686;53.084;8.872;2023-02-24T05:51:11;4.50;99.90
32187;DHT22;18686;53.084;8.872;2023-02-24T05:53:40;4.60;99.90
32187;DHT22;18686;53.084;8.872;2023-02-24T05:56:09;4.60;99.90
32187;DHT22;18686;53.084;8.872;2023-02-24T05:58:37;4.60;99.90
32187;DHT22;18686;53.084;8.872;2023-02-24T06:01:10;4.60;99.90
32187;DHT22;18686;53.084;8.872;2023-02-24T06:03:42;4.60;99.90
32187;DHT22;18686;53.084;8.872;2023-02-24T06:06:14;4.60;99.90
32187;DHT22;18686;53.084;8.872;2023-02-24T06:08:44;4.60;99.90
32187;DHT22;18686;53.084;8.872;2023-02-24T06:11:17;4.60;99.90
32187;DHT22;18686;53.084;8.872;2023-02-24T06:13:47;4.60;99.90
32187;DHT22;18686;53.084;8.872;2023-02-24T06:16:17;4.60;99.90
32187;DHT22;18686;53.084;8.872;2023-02-24T06:18:47;4.60;99.90
32187;DHT22;18686;53.084;8.872;2023-02-24T06:21:16;4.60;99.90
32187;DHT22;18686;53.084;8.872;2023-02-24T06:23:47;4.70;99.90
32187;DHT22;18686;53.084;8.872;2023-02-24T06:26:15;4.70;99.90
32187;DHT22;18686;53.084;8.872;2023-02-24T06:28:46;4.70;99.90
32187;DHT22;18686;53.084;8.872;2023-02-24T06:31:15;4.70;99.90
32187;DHT22;18686;53.084;8.872;2023-02-24T06:33:44;4.70;99.90
32187;DHT22;18686;53.084;8.872;2023-02-24T06:36:13;4.80;99.90
32187;DHT22;18686;53.084;8.872;2023-02-24T06:38:42;4.80;99.90
32187;DHT22;18686;53.084;8.872;2023-02-24T06:41:11;4.80;99.90
32187;DHT22;18686;53.084;8.872;2023-02-24T06:43:41;4.80;99.90
32187;DHT22;18686;53.084;8.872;2023-02-24T06:46:12;4.80;99.90
32187;DHT22;18686;53.084;8.872;2023-02-24T06:48:41;4.80;99.90
32187;DHT22;18686;53.084;8.872;2023-02-24T06:51:11;4.70;99.90
32187;DHT22;18686;53.084;8.872;2023-02-24T06:53:42;4.70;99.90
32187;DHT22;18686;53.084;8.872;2023-02-24T06:56:13;4.70;99.90
32187;DHT22;18686;53.084;8.872;2023-02-24T06:58:46;4.60;99.90
32187;DHT22;18686;53.084;8.872;2023-02-24T07:01:19;4.60;99.90
32187;DHT22;18686;53.084;8.872;2023-02-24T07:03:48;4.50;99.90
32187;DHT22;18686;53.084;8.872;2023-02-24T07:06:46;4.40;99.90
32187;DHT22;18686;53.084;8.872;2023-02-24T07:09:17;4.40;99.90
32187;DHT22;18686;53.084;8.872;2023-02-24T07:11:48;4.20;99.90
32187;DHT22;18686;53.084;8.872;2023-02-24T07:14:19;4.10;99.90
32187;DHT22;18686;53.084;8.872;2023-02-24T07:16:49;4.00;99.90
32187;DHT22;18686;53.084;8.872;2023-02-24T07:19:22;4.00;99.90
32187;DHT22;18686;53.084;8.872;2023-02-24T07:21:54;4.00;99.90
32187;DHT22;18686;53.084;8.872;2023-02-24T07:24:28;3.90;99.90
32187;DHT22;18686;53.084;8.872;2023-02-24T07:27:05;3.80;99.90
32187;DHT22;18686;53.084;8.872;2023-02-24T07:29:35;3.80;99.90
32187;DHT22;18686;53.084;8.872;2023-02-24T07:32:05;3.80;99.90
32187;DHT22;18686;53.084;8.872;2023-02-24T07:34:35;3.80;99.90
32187;DHT22;18686;53.084;8.872;2023-02-24T07:37:06;3.80;99.90
32187;DHT22;18686;53.084;8.872;2023-02-24T07:39:35;3.80;99.90
32187;DHT22;18686;53.084;8.872;2023-02-24T07:42:08;3.80;99.90
32187;DHT22;18686;53.084;8.872;2023-02-24T07:44:44;3.90;99.90
32187;DHT22;18686;53.084;8.872;2023-02-24T07:47:15;3.80;99.90
32187;DHT22;18686;53.084;8.872;2023-02-24T07:49:43;3.80;99.90
32187;DHT22;18686;53.084;8.872;2023-02-24T07:52:12;3.80;99.90
32187;DHT22;18686;53.084;8.872;2023-02-24T07:54:40;3.80;99.90
32187;DHT22;18686;53.084;8.872;2023-02-24T07:57:10;3.90;99.90
32187;DHT22;18686;53.084;8.872;2023-02-24T07:59:40;3.90;99.90
32187;DHT22;18686;53.084;8.872;2023-02-24T08:02:14;3.80;99.90
32187;DHT22;18686;53.084;8.872;2023-02-24T08:04:42;3.80;99.90
32187;DHT22;18686;53.084;8.872;2023-02-24T08:07:17;3.80;99.90
32187;DHT22;18686;53.084;8.872;2023-02-24T08:09:51;3.70;99.90
32187;DHT22;18686;53.084;8.872;2023-02-24T08:12:41;3.70;99.90
32187;DHT22;18686;53.084;8.872;2023-02-24T08:15:11;3.70;99.90
32187;DHT22;18686;53.084;8.872;2023-02-24T08:17:51;3.70;99.90
32187;DHT22;18686;53.084;8.872;2023-02-24T08:20:21;3.60;99.90
32187;DHT22;18686;53.084;8.872;2023-02-24T08:22:53;3.60;99.90
32187;DHT22;18686;53.084;8.872;2023-02-24T08:25:23;3.60;99.90
32187;DHT22;18686;53.084;8.872;2023-02-24T08:28:04;3.60;99.90
32187;DHT22;18686;53.084;8.872;2023-02-24T08:30:39;3.60;99.90
32187;DHT22;18686;53.084;8.872;2023-02-24T08:33:17;3.50;99.90
32187;DHT22;18686;53.084;8.872;2023-02-24T08:35:50;3.50;99.90
32187;DHT22;18686;53.084;8.872;2023-02-24T08:38:20;3.40;99.90
32187;DHT22;18686;53.084;8.872;2023-02-24T08:40:52;3.40;99.90
32187;DHT22;18686;53.084;8.872;2023-02-24T08:43:27;3.40;99.90
32187;DHT22;18686;53.084;8.872;2023-02-24T08:46:03;3.40;99.90
32187;DHT22;18686;53.084;8.872;2023-02-24T08:48:40;3.40;99.90
32187;DHT22;18686;53.084;8.872;2023-02-24T08:51:12;3.40;99.90
32187;DHT22;18686;53.084;8.872;2023-02-24T08:53:42;3.50;99.90
32187;DHT22;18686;53.084;8.872;2023-02-24T08:56:14;3.50;99.90
32187;DHT22;18686;53.084;8.872;2023-02-24T08:58:53;3.50;99.90
32187;DHT22;18686;53.084;8.872;2023-02-24T09:01:27;3.60;99.90
32187;DHT22;18686;53.084;8.872;2023-02-24T09:04:03;3.60;99.90
32187;DHT22;18686;53.084;8.872;2023-02-24T09:06:38;3.60;99.90
32187;DHT22;18686;53.084;8.872;2023-02-24T09:09:10;3.60;99.90
32187;DHT22;18686;53.084;8.872;2023-02-24T09:11:51;3.60;99.90
32187;DHT22;18686;53.084;8.872;2023-02-24T09:14:26;3.60;99.90
32187;DHT22;18686;53.084;8.872;2023-02-24T09:16:57;3.60;99.90
32187;DHT22;18686;53.084;8.872;2023-02-24T09:19:38;3.60;99.90
32187;DHT22;18686;53.084;8.872;2023-02-24T09:22:26;3.70;99.90
32187;DHT22;18686;53.084;8.872;2023-02-24T09:25:15;3.70;99.90
32187;DHT22;18686;53.084;8.872;2023-02-24T09:27:50;3.70;99.90
32187;DHT22;18686;53.084;8.872;2023-02-24T09:30:27;3.70;99.90
32187;DHT22;18686;53.084;8.872;2023-02-24T09:33:07;3.70;99.90
32187;DHT22;18686;53.084;8.872;2023-02-24T09:35:45;3.70;99.90
32187;DHT22;18686;53.084;8.872;2023-02-24T09:38:14;3.70;99.90
32187;DHT22;18686;53.084;8.872;2023-02-24T09:40:47;3.70;99.90
32187;DHT22;18686;53.084;8.872;2023-02-24T09:43:18;3.70;99.90
32187;DHT22;18686;53.084;8.872;2023-02-24T09:45:59;3.70;99.90
32187;DHT22;18686;53.084;8.872;2023-02-24T09:48:37;3.80;99.90
32187;DHT22;18686;53.084;8.872;2023-02-24T09:51:12;3.80;99.90
32187;DHT22;18686;53.084;8.872;2023-02-24T09:53:50;3.80;99.90
32187;DHT22;18686;53.084;8.872;2023-02-24T09:56:28;3.90;99.90
32187;DHT22;18686;53.084;8.872;2023-02-24T09:59:08;3.80;99.90
32187;DHT22;18686;53.084;8.872;2023-02-24T10:01:44;3.90;99.90
32187;DHT22;18686;53.084;8.872;2023-02-24T10:04:38;4.00;99.90
32187;DHT22;18686;53.084;8.872;2023-02-24T10:07:18;4.10;99.90
32187;DHT22;18686;53.084;8.872;2023-02-24T10:09:51;4.10;99.90
32187;DHT22;18686;53.084;8.872;2023-02-24T10:12:22;4.10;99.90
32187;DHT22;18686;53.084;8.872;2023-02-24T10:14:59;4.10;99.90
32187;DHT22;18686;53.084;8.872;2023-02-24T10:17:49;4.10;99.90
32187;DHT22;18686;53.084;8.872;2023-02-24T10:20:22;4.10;99.90
32187;DHT22;18686;53.084;8.872;2023-02-24T10:22:59;4.10;99.90
32187;DHT22;18686;53.084;8.872;2023-02-24T10:25:48;4.00;99.90
32187;DHT22;18686;53.084;8.872;2023-02-24T10:28:27;4.00;99.90
32187;DHT22;18686;53.084;8.872;2023-02-24T10:31:08;4.00;99.90
32187;DHT22;18686;53.084;8.872;2023-02-24T10:33:55;4.10;99.90
32187;DHT22;18686;53.084;8.872;2023-02-24T10:36:24;4.10;99.90
32187;DHT22;18686;53.084;8.872;2023-02-24T10:39:12;4.10;99.90
32187;DHT22;18686;53.084;8.872;2023-02-24T10:41:43;4.20;99.90
32187;DHT22;18686;53.084;8.872;2023-02-24T10:44:19;4.10;99.90
32187;DHT22;18686;53.084;8.872;2023-02-24T10:46:59;4.10;99.90
32187;DHT22;18686;53.084;8.872;2023-02-24T10:49:43;4.10;99.90
32187;DHT22;18686;53.084;8.872;2023-02-24T10:52:25;4.10;99.90
32187;DHT22;18686;53.084;8.872;2023-02-24T10:55:25;4.10;99.90
32187;DHT22;18686;53.084;8.872;2023-02-24T10:58:00;4.10;99.90
32187;DHT22;18686;53.084;8.872;2023-02-24T11:00:39;4.10;99.90
32187;DHT22;18686;53.084;8.872;2023-02-24T11:03:26;4.10;99.90
32187;DHT22;18686;53.084;8.872;2023-02-24T11:06:20;4.10;99.90
32187;DHT22;18686;53.084;8.872;2023-02-24T11:09:15;4.20;99.90
32187;DHT22;18686;53.084;8.872;2023-02-24T11:12:02;4.20;99.90
32187;DHT22;18686;53.084;8.872;2023-02-24T11:14:50;4.20;99.90
32187;DHT22;18686;53.084;8.872;2023-02-24T11:17:45;4.30;99.90
32187;DHT22;18686;53.084;8.872;2023-02-24T11:20:21;4.30;99.90
32187;DHT22;18686;53.084;8.872;2023-02-24T11:22:52;4.30;99.90
32187;DHT22;18686;53.084;8.872;2023-02-24T11:25:24;4.30;99.90
32187;DHT22;18686;53.084;8.872;2023-02-24T11:27:54;4.30;99.90
32187;DHT22;18686;53.084;8.872;2023-02-24T11:30:34;4.40;99.90
32187;DHT22;18686;53.084;8.872;2023-02-24T11:33:16;4.50;99.90
32187;DHT22;18686;53.084;8.872;2023-02-24T11:36:00;4.50;99.90
32187;DHT22;18686;53.084;8.872;2023-02-24T11:38:41;4.50;99.90
32187;DHT22;18686;53.084;8.872;2023-02-24T11:41:18;4.60;99.90
32187;DHT22;18686;53.084;8.872;2023-02-24T11:43:55;4.60;99.90
32187;DHT22;18686;53.084;8.872;2023-02-24T11:46:35;4.80;99.90
32187;DHT22;18686;53.084;8.872;2023-02-24T11:49:10;4.80;99.90
32187;DHT22;18686;53.084;8.872;2023-02-24T11:51:44;4.90;99.90
32187;DHT22;18686;53.084;8.872;2023-02-24T11:54:15;4.90;99.90
32187;DHT22;18686;53.084;8.872;2023-02-24T11:56:45;5.00;99.90
32187;DHT22;18686;53.084;8.872;2023-02-24T11:59:19;5.10;99.90
32187;DHT22;18686;53.084;8.872;2023-02-24T12:01:55;5.30;99.90
32187;DHT22;18686;53.084;8.872;2023-02-24T12:04:29;5.50;99.90
32187;DHT22;18686;53.084;8.872;2023-02-24T12:07:04;5.60;99.90
32187;DHT22;18686;53.084;8.872;2023-02-24T12:09:40;5.60;99.90
32187;DHT22;18686;53.084;8.872;2023-02-24T12:12:14;5.70;99.90
32187;DHT22;18686;53.084;8.872;2023-02-24T12:14:46;5.70;99.90
32187;DHT22;18686;53.084;8.872;2023-02-24T12:17:22;5.80;99.90
32187;DHT22;18686;53.084;8.872;2023-02-24T12:19:58;5.80;99.90
32187;DHT22;18686;53.084;8.872;2023-02-24T12:22:31;6.00;99.90
32187;DHT22;18686;53.084;8.872;2023-02-24T12:25:03;6.20;99.90
32187;DHT22;18686;53.084;8.872;2023-02-24T12:27:40;6.50;99.90
32187;DHT22;18686;53.084;8.872;2023-02-24T12:30:35;6.70;99.90
32187;DHT22;18686;53.084;8.872;2023-02-24T12:33:26;6.90;99.90
32187;DHT22;18686;53.084;8.872;2023-02-24T12:36:03;7.00;99.90
32187;DHT22;18686;53.084;8.872;2023-02-24T12:38:45;7.10;99.90
32187;DHT22;18686;53.084;8.872;2023-02-24T12:41:31;7.10;99.90
32187;DHT22;18686;53.084;8.872;2023-02-24T12:44:12;7.10;99.90
32187;DHT22;18686;53.084;8.872;2023-02-24T12:46:46;7.40;99.90
32187;DHT22;18686;53.084;8.872;2023-02-24T12:49:29;7.70;99.90
32187;DHT22;18686;53.084;8.872;2023-02-24T12:52:08;8.00;99.90
32187;DHT22;18686;53.084;8.872;2023-02-24T12:54:44;8.00;99.90
32187;DHT22;18686;53.084;8.872;2023-02-24T12:57:19;7.90;99.90
32187;DHT22;18686;53.084;8.872;2023-02-24T12:59:49;7.90;99.90
32187;DHT22;18686;53.084;8.872;2023-02-24T13:02:23;7.90;99.90
32187;DHT22;18686;53.084;8.872;2023-02-24T13:04:57;7.90;99.90
32187;DHT22;18686;53.084;8.872;2023-02-24T13:07:49;8.00;99.90
32187;DHT22;18686;53.084;8.872;2023-02-24T13:10:29;8.00;99.90
32187;DHT22;18686;53.084;8.872;2023-02-24T13:13:06;7.90;99.90
32187;DHT22;18686;53.084;8.872;2023-02-24T13:15:36;7.90;99.90
32187;DHT22;18686;53.084;8.872;2023-02-24T13:18:04;7.90;99.90
32187;DHT22;18686;53.084;8.872;2023-02-24T13:20:34;7.90;99.90
32187;DHT22;18686;53.084;8.872;2023-02-24T13:23:18;8.00;99.90
32187;DHT22;18686;53.084;8.872;2023-02-24T13:25:50;8.50;99.90
32187;DHT22;18686;53.084;8.872;2023-02-24T13:28:24;9.80;99.90
32187;DHT22;18686;53.084;8.872;2023-02-24T13:30:58;11.50;99.90
32187;DHT22;18686;53.084;8.872;2023-02-24T13:33:29;12.80;99.90
32187;DHT22;18686;53.084;8.872;2023-02-24T13:36:11;14.00;99.90
32187;DHT22;18686;53.084;8.872;2023-02-24T13:38:41;14.90;99.90
32187;DHT22;18686;53.084;8.872;2023-02-24T13:41:37;15.50;99.90
32187;DHT22;18686;53.084;8.872;2023-02-24T13:44:25;15.90;99.00
32187;DHT22;18686;53.084;8.872;2023-02-24T13:50:18;14.70;93.60
32187;DHT22;18686;53.084;8.872;2023-02-24T13:53:12;13.90;94.40
32187;DHT22;18686;53.084;8.872;2023-02-24T13:58:50;12.00;99.50
32187;DHT22;18686;53.084;8.872;2023-02-24T14:01:26;11.20;99.90
32187;DHT22;18686;53.084;8.872;2023-02-24T14:04:13;10.50;99.90
32187;DHT22;18686;53.084;8.872;2023-02-24T14:06:46;9.80;99.90
32187;DHT22;18686;53.084;8.872;2023-02-24T14:09:19;9.30;99.90
32187;DHT22;18686;53.084;8.872;2023-02-24T14:11:51;8.80;99.90
32187;DHT22;18686;53.084;8.872;2023-02-24T14:14:23;8.40;99.90
32187;DHT22;18686;53.084;8.872;2023-02-24T14:16:53;8.20;99.90
32187;DHT22;18686;53.084;8.872;2023-02-24T14:19:24;8.10;99.90
32187;DHT22;18686;53.084;8.872;2023-02-24T14:21:53;8.20;99.90
32187;DHT22;18686;53.084;8.872;2023-02-24T14:24:23;8.30;99.90
32187;DHT22;18686;53.084;8.872;2023-02-24T14:26:55;8.50;99.90
32187;DHT22;18686;53.084;8.872;2023-02-24T14:29:25;8.90;99.90
32187;DHT22;18686;53.084;8.872;2023-02-24T14:32:00;9.40;99.90
32187;DHT22;18686;53.084;8.872;2023-02-24T14:34:30;10.00;99.90
32187;DHT22;18686;53.084;8.872;2023-02-24T14:37:01;10.60;99.90
32187;DHT22;18686;53.084;8.872;2023-02-24T14:39:31;10.90;99.90
32187;DHT22;18686;53.084;8.872;2023-02-24T14:42:10;11.00;99.90
32187;DHT22;18686;53.084;8.872;2023-02-24T14:44:41;11.10;99.90
32187;DHT22;18686;53.084;8.872;2023-02-24T14:47:13;11.40;99.90
32187;DHT22;18686;53.084;8.872;2023-02-24T14:49:49;11.60;99.90
32187;DHT22;18686;53.084;8.872;2023-02-24T14:52:31;11.70;99.90
32187;DHT22;18686;53.084;8.872;2023-02-24T14:55:03;11.70;99.90
32187;DHT22;18686;53.084;8.872;2023-02-24T14:57:35;11.50;99.90
32187;DHT22;18686;53.084;8.872;2023-02-24T15:00:08;11.30;99.90
32187;DHT22;18686;53.084;8.872;2023-02-24T15:02:47;11.10;99.90
32187;DHT22;18686;53.084;8.872;2023-02-24T15:05:18;10.90;99.90
32187;DHT22;18686;53.084;8.872;2023-02-24T15:07:46;10.50;99.90
32187;DHT22;18686;53.084;8.872;2023-02-24T15:10:20;10.30;99.90
32187;DHT22;18686;53.084;8.872;2023-02-24T15:12:51;10.00;99.90
32187;DHT22;18686;53.084;8.872;2023-02-24T15:15:23;9.80;99.90
32187;DHT22;18686;53.084;8.872;2023-02-24T15:17:56;9.70;99.90
32187;DHT22;18686;53.084;8.872;2023-02-24T15:20:31;9.60;99.90
32187;DHT22;18686;53.084;8.872;2023-02-24T15:23:00;9.40;99.90
32187;DHT22;18686;53.084;8.872;2023-02-24T15:25:30;9.30;99.90
32187;DHT22;18686;53.084;8.872;2023-02-24T15:28:22;9.20;99.90
32187;DHT22;18686;53.084;8.872;2023-02-24T15:31:15;9.10;99.90
32187;DHT22;18686;53.084;8.872;2023-02-24T15:33:53;9.00;99.90
32187;DHT22;18686;53.084;8.872;2023-02-24T15:36:25;8.90;99.90
32187;DHT22;18686;53.084;8.872;2023-02-24T15:38:56;8.70;99.90
32187;DHT22;18686;53.084;8.872;2023-02-24T15:41:36;8.60;99.90
32187;DHT22;18686;53.084;8.872;2023-02-24T15:44:04;8.50;99.90
32187;DHT22;18686;53.084;8.872;2023-02-24T15:46:34;8.30;99.90
32187;DHT22;18686;53.084;8.872;2023-02-24T15:49:04;8.20;99.90
32187;DHT22;18686;53.084;8.872;2023-02-24T15:51:35;8.00;99.90
32187;DHT22;18686;53.084;8.872;2023-02-24T15:54:06;7.80;99.90
32187;DHT22;18686;53.084;8.872;2023-02-24T15:56:35;7.70;99.90
32187;DHT22;18686;53.084;8.872;2023-02-24T15:59:03;7.60;99.90
32187;DHT22;18686;53.084;8.872;2023-02-24T16:01:32;7.50;99.90
32187;DHT22;18686;53.084;8.872;2023-02-24T16:04:01;7.40;99.90
32187;DHT22;18686;53.084;8.872;2023-02-24T16:06:32;7.40;99.90
32187;DHT22;18686;53.084;8.872;2023-02-24T16:09:02;7.30;99.90
32187;DHT22;18686;53.084;8.872;2023-02-24T16:11:35;7.30;99.90
32187;DHT22;18686;53.084;8.872;2023-02-24T16:14:05;7.30;99.90
32187;DHT22;18686;53.084;8.872;2023-02-24T16:16:33;7.20;99.90
32187;DHT22;18686;53.084;8.872;2023-02-24T16:19:01;7.10;99.90
32187;DHT22;18686;53.084;8.872;2023-02-24T16:21:29;7.00;99.90
32187;DHT22;18686;53.084;8.872;2023-02-24T16:23:59;7.00;99.90
32187;DHT22;18686;53.084;8.872;2023-02-24T16:26:38;6.90;99.90
32187;DHT22;18686;53.084;8.872;2023-02-24T16:29:11;6.80;99.90
32187;DHT22;18686;53.084;8.872;2023-02-24T16:31:41;6.70;99.90
32187;DHT22;18686;53.084;8.872;2023-02-24T16:34:13;6.70;99.90
32187;DHT22;18686;53.084;8.872;2023-02-24T16:36:42;6.70;99.90
32187;DHT22;18686;53.084;8.872;2023-02-24T16:39:12;6.70;99.90